Parksville, KY (40464)

6:38 AM EDT on October 24, 2014 (GMT -0400)
Perryville, KY | Change Station
CLOSE
Current Station
Personal Weather Station
Location: Danville, KY
Elevation: 915 ft
Nearby Weather Stations

Elev 915 ft 37.65 °N, 84.92 °W | Updated 39 seconds ago

Partly Cloudy
Partly Cloudy
40.3 °F
Feels Like 40 °F
N
0.0
Wind Variable Wind from West
Gusts 0.0 mph

Today
High -- | Low -- °F
--% Chance of Precip.
Yesterday
High -- | Low -- °F
Precip. -- in
7:56 AM 6:50 PM
New Moon, 0% visible
Pressure 30.14 in
Visibility 10.0 miles
Clouds Clear
Windchill 40 °F
Dew Point 40 °F
Humidity 99%
Rainfall 0.00 in
Snow Depth Not available.
UV 0 out of 12
Pollen 1.30 out of 12
Air Quality Not available.
Flu Activity Sporadic
METAR KDVK 241015Z AUTO 00000KT 10SM CLR 05/04 A3014 RMK AO2

More Conditions Fewer Conditions

Pressure 30.14 in
Visibility 10.0 miles
Clouds Clear
Windchill 40 °F
Dew Point 40 °F
Humidity 99%
Rainfall 0.00 in
Snow Depth Not available.
UV 0 out of 12
Pollen 1.30 out of 12
Air Quality Not available.
Flu Activity Sporadic
METAR KDVK 241015Z AUTO 00000KT 10SM CLR 05/04 A3014 RMK AO2

More Conditions Fewer Conditions

10-Day Weather Forecast

Almanac

Astronomy

Oct. 24, 2014 Rise Set
Actual Time 7:56 AM EDT 6:50 PM EDT
Civil Twilight 7:29 AM EDT 7:17 PM EDT
Nautical Twilight 6:59 AM EDT 7:47 PM EDT
Astronomical Twilight 6:28 AM EDT 8:18 PM EDT
Moon 8:34 AM EDT 7:31 PM EDT
Length of Visible Light 11h 47m
Length of Day
10h 53m
Tomorrow will be 2m 14s shorter.
New Moon, 0% of the Moon is Illuminated
Today
New Moon
Oct 30
First Quarter
Nov 6
Full
Nov 14
Last Quarter
Nov 22
New

Today's Extremes

State Highs State Lows

Community

WunderPhotos

Upload Photos

1,764,516 photos uploaded!

WunderBlogs® & News

Nearby

Snow Depth

Station Depth Elevation
No new snow has been reported.

Earthquake Activity

City Distance Mag. Time & Date
No recent earthquake activity has been reported nearby.
Minimum magnitude displayed is 2.5.

Coastal Water Temperatures

Place Temperature
No Stations Reporting

Nearby Weather Stations